x

8638614 - Willoughby Deguassing Station, Va (wdsv2) Weather Station

11:54pm - Mon 23rd Oct 2017 All times are EDT. -4 hours from GMT.

  • Wind
    28mph, 32mph gusts
  • Air Temp 75°f
  • Sea Pressure 1012.3mb
  • 8638614 - Willoughby Deguassing Station, Va
  • 8638614 - Willoughby Deguassing Station, Va

More Historic Weather Station data

Upgrade to MSW Pro to gain access to the past 30 days of data for over 8000 Wavebouys and Weather Stations around the globe.

Join

Comparision Forecast

View Surf forecast
   
Mon 10/23 11:54pm 28 32 mph 1012.3mb 75f
11:48pm 22 26 mph - -
11:42pm 29 37 mph 1012.1mb 75f
11:36pm 25 31 mph 1011.8mb 75f
11:30pm 25 31 mph 1011.8mb 75f
11:24pm 26 33 mph 1011.5mb 75f
11:18pm  -  mph 1011.5mb -
11:12pm  -  mph 1011.7mb 75f
11:06pm  -  mph 1011.6mb 75f
11:00pm 30 37 mph 1011.5mb 75f
10:54pm 31 37 mph 1011.5mb 75f
10:48pm  -  mph 1011.1mb -
10:42pm  -  mph 1011.1mb 75f
10:36pm  -  mph 1011mb 75f
10:30pm 29 33 mph 1010.9mb 75f
10:24pm 26 30 mph 1010.8mb 75f
10:18pm 26 31 mph 1010.9mb 75f
10:12pm 30 37 mph 1010.7mb 75f
10:06pm 29 36 mph 1010.8mb 75f
10:00pm 29 33 mph 1010.8mb 75f
9:54pm 29 36 mph 1010.9mb 74f
9:48pm  -  mph 1011.2mb -
9:42pm  -  mph 1011.6mb 74f
9:36pm  -  mph 1011.4mb 74f
9:30pm 22 26 mph 1011.8mb 74f
9:24pm 23 28 mph 1011.8mb 74f
9:18pm 23 28 mph 1011.9mb -
9:12pm 23 29 mph 1011.9mb 74f
9:06pm 22 26 mph 1012mb 74f
9:00pm 22 30 mph 1012.3mb 74f
8:54pm 22 25 mph 1012.3mb 74f
8:48pm 23 26 mph 1012.5mb -
8:42pm 20 22 mph 1012.5mb 74f
8:36pm 21 23 mph 1012.6mb 74f
8:30pm 22 24 mph 1012.9mb 74f
8:24pm 22 25 mph 1012.8mb 74f
8:18pm 18 24 mph 1013.1mb 74f
8:12pm 21 24 mph 1013.2mb 74f
8:06pm 20 22 mph 1013.5mb 74f
8:00pm 18 23 mph 1013.7mb 74f
7:54pm 20 23 mph 1013.8mb 74f
7:48pm  -  mph 1014mb -
7:42pm  -  mph 1014.3mb -
7:36pm  -  mph 1014.1mb -
7:30pm 20 22 mph 1014.1mb 74f
7:24pm 22 25 mph 1014.1mb 74f
7:18pm 20 24 mph 1014mb 74f
7:12pm 17 20 mph 1014.2mb 74f
7:06pm 18 22 mph 1014.3mb 74f
7:00pm 20 24 mph 1014.2mb 74f
6:54pm 18 22 mph 1014.2mb 75f
6:48pm 18 22 mph 1014.2mb -
6:42pm 20 23 mph 1014.3mb 74f
6:36pm 17 20 mph 1014.3mb 74f
6:30pm 17 20 mph 1014.4mb 74f
6:24pm 20 23 mph 1014.5mb 74f
6:18pm 15 17 mph 1014.4mb -
6:12pm 15 18 mph 1014.7mb 74f
6:06pm 16 20 mph 1014.7mb 75f
6:00pm 16 18 mph 1014.7mb 75f
5:54pm 18 21 mph 1014.7mb 75f
5:48pm 17 21 mph 1014.8mb 75f
5:42pm 15 16 mph 1014.9mb 75f
5:36pm 18 22 mph 1015mb 75f
5:30pm 17 22 mph 1015.1mb 75f
5:24pm 18 22 mph 1015.2mb 75f
5:18pm 16 20 mph 1015.3mb 75f
5:12pm 22 25 mph 1015.4mb 75f
5:06pm 17 21 mph 1015.4mb 75f
5:00pm 21 23 mph 1015.6mb 75f
4:54pm 18 21 mph 1015.5mb 75f
4:48pm 24 26 mph 1015.7mb 75f
4:42pm 22 25 mph 1015.8mb 75f
4:36pm 22 25 mph 1015.9mb 75f
4:30pm 21 24 mph 1016mb 76f
4:24pm 21 25 mph 1016.1mb 76f
4:18pm 20 22 mph 1016.2mb 76f
4:12pm 21 23 mph 1016.3mb 76f
4:06pm 15 18 mph 1016.3mb 76f
4:00pm 21 23 mph 1016.5mb 75f
3:54pm 21 25 mph 1016.5mb 76f
3:48pm 21 23 mph 1016.7mb 76f
3:42pm 22 25 mph 1016.7mb 76f
3:36pm 22 25 mph 1016.9mb 76f
3:30pm 23 28 mph 1017mb 76f
3:24pm 21 23 mph 1017mb 76f
3:18pm 21 25 mph 1017.1mb 76f
3:12pm 18 22 mph 1017.2mb 77f
3:06pm 17 22 mph 1017.5mb 77f
3:00pm 21 24 mph 1017.6mb 77f
2:54pm 21 24 mph 1017.5mb 77f
2:48pm 18 21 mph 1017.6mb 76f
2:42pm 21 25 mph 1017.8mb 77f
2:36pm 21 22 mph 1017.8mb 77f
2:30pm 20 21 mph 1017.8mb 76f
2:24pm 21 24 mph 1017.8mb 76f
2:18pm 21 23 mph 1017.7mb 76f
2:12pm 18 21 mph 1017.9mb 77f
2:06pm 17 20 mph 1018mb 77f
2:00pm 17 20 mph 1018.1mb 76f
1:54pm 16 21 mph 1018.2mb 77f
1:48pm 16 20 mph 1018.3mb 77f
1:42pm 15 18 mph 1018.4mb 77f
1:36pm 16 18 mph 1018.4mb 77f
1:30pm 15 17 mph 1018.5mb 77f
1:24pm 16 18 mph 1018.7mb 76f
1:18pm 17 18 mph 1019mb 77f
1:12pm 16 17 mph 1019.1mb 76f
1:06pm 17 20 mph 1019.2mb 76f
1:00pm 17 20 mph 1019.4mb 76f
12:54pm 18 22 mph 1019.5mb 76f
12:48pm 17 21 mph 1019.5mb 76f
12:42pm 20 23 mph 1019.8mb 76f
12:36pm 21 22 mph 1019.8mb 76f
12:30pm 20 24 mph 1020mb 76f
12:24pm 21 24 mph 1020.3mb 76f
12:18pm 20 23 mph 1020.4mb 76f
12:12pm 22 26 mph 1020.6mb 76f
12:06pm 21 24 mph 1020.7mb 76f
12:00pm 17 21 mph 1020.7mb 76f
11:54am 21 26 mph 1020.8mb 75f
11:48am 21 25 mph 1020.8mb 76f
11:42am 18 22 mph 1020.8mb 76f
11:36am 17 21 mph 1021mb 75f
11:30am 18 22 mph 1021.2mb 75f
11:24am 14 17 mph 1021.3mb 75f
11:18am 14 18 mph 1021.5mb 74f
11:12am 10 13 mph 1021.6mb 74f
11:06am 11 13 mph 1021.7mb 74f
11:00am 10 14 mph 1021.7mb 74f
10:54am 11 15 mph 1021.8mb 73f
10:48am 10 11 mph 1021.9mb 73f
10:42am 10 13 mph 1022mb 73f
10:36am 13 15 mph 1022mb 72f
10:30am 11 13 mph 1022mb 72f
10:24am 11 13 mph 1022.1mb 72f
10:18am 10 13 mph 1022.2mb 71f
10:12am 10 13 mph 1022.3mb 71f
10:06am 9 10 mph 1022.5mb 71f
10:00am 9 10 mph 1022.6mb 70f
9:54am 8 10 mph 1022.8mb 70f
9:48am 9 10 mph 1022.8mb 71f
9:42am 8 9 mph 1022.7mb 70f
9:36am 7 8 mph 1022.9mb 70f
9:30am 8 9 mph 1023.1mb 70f
9:24am 8 9 mph 1023.2mb 70f
9:18am 8 9 mph 1023.1mb 70f
9:12am 9 10 mph 1023.1mb 70f
9:06am 9 10 mph 1023.2mb 70f
9:00am 7 9 mph 1023.3mb 70f
8:48am 8 9 mph 1023.2mb 69f
8:42am 9 10 mph 1023.3mb 69f
8:36am 8 10 mph 1023.4mb 69f
8:30am 9 10 mph 1023.4mb 69f
8:24am 8 9 mph 1023.4mb 69f
8:18am 6 7 mph 1023.5mb 69f
8:12am 7 7 mph 1023.5mb 69f
8:06am 8 8 mph 1023.5mb 69f
8:00am 7 8 mph 1023.4mb 69f
7:54am 8 9 mph 1023.4mb 69f
7:48am 8 9 mph 1023.4mb 69f
7:42am 9 10 mph 1023.4mb 69f
7:36am 8 8 mph 1023.4mb 69f
7:30am 7 8 mph 1023.3mb 69f
7:24am 6 7 mph 1023.3mb 69f
7:18am 7 7 mph 1023.4mb 69f
7:12am 8 8 mph 1023.5mb 69f
7:06am 8 9 mph 1023.5mb 69f
7:00am 9 9 mph 1023.5mb 69f
6:54am 8 9 mph 1023.6mb 69f
6:48am 8 9 mph 1023.6mb 68f
6:42am 9 10 mph 1023.6mb 68f
6:36am 10 10 mph 1023.6mb 68f
6:30am 9 10 mph 1023.6mb 68f
6:24am 10 11 mph 1023.6mb 68f
6:18am 9 10 mph 1023.6mb 68f
6:12am 10 11 mph 1023.6mb 68f
6:06am 10 11 mph 1023.6mb 68f
6:00am 9 10 mph 1023.6mb 68f
5:54am 9 10 mph 1023.8mb 68f
5:48am 10 11 mph 1023.8mb 68f
5:42am 8 9 mph 1023.8mb 68f
5:36am 7 8 mph 1023.9mb 68f
5:30am 7 8 mph 1024mb 68f
5:24am 8 8 mph 1024.1mb 68f
5:18am 7 8 mph 1024.1mb 68f
5:12am 7 7 mph 1024.1mb 68f
5:06am 6 7 mph 1024.1mb 68f
5:00am 6 7 mph 1024.2mb 68f
4:54am 5 6 mph 1024.2mb 68f
4:48am 5 6 mph 1024.2mb 68f
4:42am 3 5 mph 1024.2mb 68f
4:36am 3 5 mph 1024.1mb 68f
4:30am 3 3 mph 1024.1mb 68f
4:24am 3 5 mph 1024.1mb 68f
4:18am 5 5 mph 1024.2mb 68f
4:12am 5 6 mph 1024.2mb 68f
4:06am 5 6 mph 1024.2mb 68f
4:00am 6 6 mph 1024.2mb 68f
3:54am 6 6 mph 1024.2mb 68f
3:48am 7 9 mph 1024.3mb 68f
3:42am 6 7 mph 1024.3mb 68f
3:36am 6 6 mph 1024.2mb 68f
3:30am 5 6 mph 1024.3mb 67f
3:24am 6 7 mph 1024.2mb 67f
3:18am 6 6 mph 1024.3mb 67f
3:12am 6 6 mph 1024.4mb 67f
3:06am 6 6 mph 1024.4mb 67f
3:00am 5 6 mph 1024.4mb 67f
2:54am 6 7 mph 1024.4mb 67f
2:48am 5 6 mph - -
2:42am 6 6 mph 1024.6mb 67f
2:36am 5 6 mph 1024.7mb 67f
2:30am 6 6 mph 1024.7mb 67f
2:24am 6 6 mph 1024.7mb 67f
2:18am 6 6 mph 1024.8mb 67f
2:12am 6 6 mph 1024.9mb 67f
2:06am 6 7 mph 1024.9mb 67f
2:00am 6 7 mph 1024.8mb 67f
1:54am 6 7 mph 1024.9mb 67f
1:48am 7 7 mph 1024.9mb 67f
1:42am 6 7 mph 1025mb 67f
1:36am 6 7 mph 1025.1mb 67f
1:30am 7 8 mph 1025.1mb 67f
1:24am 7 8 mph 1025.2mb 67f
1:18am 7 8 mph 1025.2mb 67f
1:12am 7 8 mph 1025.3mb 67f
1:06am 8 8 mph 1025.2mb 67f
1:00am 7 8 mph 1025.4mb 67f
12:54am 8 9 mph 1025.3mb 67f
12:48am 8 9 mph 1025.4mb 67f
12:42am 8 8 mph 1025.4mb 67f
12:36am 9 9 mph 1025.5mb 68f
12:30am 9 10 mph 1025.5mb 67f
12:24am 9 10 mph 1025.6mb 68f
12:18am 9 10 mph 1025.5mb 67f
12:12am 9 10 mph 1025.5mb 67f
12:06am 8 9 mph 1025.5mb 67f
12:00am 8 9 mph 1025.6mb 67f
Sun 10/22 11:54pm 8 9 mph 1025.7mb 67f
11:48pm 8 9 mph - -
11:42pm 9 9 mph 1025.8mb 67f
11:36pm 8 9 mph 1025.9mb 67f
11:30pm 8 9 mph 1026mb 67f
11:24pm 8 9 mph 1026.1mb 67f
11:18pm 8 9 mph 1026.2mb 67f
11:12pm 9 10 mph 1026.3mb 67f
11:06pm 9 10 mph 1026.3mb 67f
11:00pm 9 9 mph 1026.3mb 67f
10:54pm 8 9 mph 1026.3mb 67f
10:48pm 8 8 mph 1026.4mb 67f
10:42pm 8 9 mph 1026.4mb 68f
10:36pm 8 9 mph 1026.5mb 68f
10:30pm 8 9 mph 1026.5mb 68f
10:24pm 8 9 mph 1026.6mb 68f
10:18pm 8 8 mph - -
10:12pm 7 9 mph 1026.7mb 68f
10:06pm 7 8 mph 1026.7mb 68f
10:00pm 8 10 mph 1026.8mb 69f
9:54pm 8 10 mph 1026.7mb 69f
9:48pm  -  mph 1026.8mb 69f
9:42pm  -  mph 1026.8mb 69f
9:36pm  -  mph 1026.8mb 69f
9:30pm 8 9 mph 1026.8mb 69f
9:24pm 8 9 mph 1026.8mb 69f
9:18pm 8 9 mph - -
9:12pm 8 8 mph 1026.7mb 69f
9:06pm 8 9 mph 1026.7mb 69f
9:00pm 10 11 mph 1026.7mb 69f
8:54pm 11 13 mph 1026.6mb 69f
8:48pm 9 11 mph - -
8:42pm 10 11 mph 1026.6mb 69f
8:36pm 10 11 mph 1026.6mb 69f
8:30pm 10 11 mph 1026.5mb 69f
8:24pm 10 11 mph 1026.5mb 69f
8:18pm 10 11 mph - -
8:12pm 10 13 mph 1026.6mb 69f
8:06pm 10 11 mph 1026.5mb 69f
8:00pm 10 11 mph 1026.5mb 69f
7:54pm 10 13 mph 1026.5mb 69f
7:48pm 11 14 mph 1026.4mb -
7:42pm 10 11 mph 1026.4mb -
7:36pm 13 14 mph 1026.5mb -
7:30pm 11 13 mph 1026.5mb 69f
7:24pm 11 14 mph 1026.4mb 69f
7:18pm 13 15 mph 1026.3mb 69f
7:12pm 11 14 mph 1026.3mb 69f
7:06pm 13 15 mph 1026.4mb 69f
7:00pm 13 15 mph 1026.2mb 69f
6:54pm 14 16 mph 1026.1mb 69f
6:48pm 15 16 mph 1026.1mb -
6:42pm 16 17 mph 1026.1mb -
6:36pm 15 16 mph 1026mb -
6:30pm 13 15 mph 1026.1mb 69f
6:24pm 14 16 mph 1026.2mb 69f
6:18pm 14 16 mph 1026.2mb 69f
6:12pm 14 15 mph 1026.2mb 70f
6:06pm 14 15 mph 1026.3mb 70f
6:00pm 14 16 mph 1026.3mb 70f
5:54pm 14 16 mph 1026.2mb 70f
5:48pm 14 16 mph 1026.2mb -
5:42pm 15 17 mph 1026.4mb 70f
5:36pm 13 14 mph 1026.4mb 70f
5:30pm 15 17 mph 1026.5mb 70f
5:24pm 14 16 mph 1026.3mb 70f
5:18pm 16 17 mph 1026.3mb 70f
5:12pm 14 17 mph 1026.3mb 70f
5:06pm 14 16 mph 1026.3mb 70f
5:00pm 16 17 mph 1026.3mb 70f
4:54pm 16 20 mph 1026.2mb 70f
4:48pm 15 17 mph 1026.2mb 70f
4:42pm 14 16 mph 1026.2mb 69f
4:36pm 14 16 mph 1026.4mb 69f
4:30pm 13 16 mph 1026.4mb 70f
4:24pm 14 16 mph 1026.4mb 70f
4:18pm 14 16 mph 1026.4mb 70f
4:12pm 14 16 mph 1026.4mb 70f
4:06pm 13 14 mph 1026.3mb 70f
4:00pm 13 14 mph 1026.4mb 70f
3:54pm 10 11 mph 1026.5mb 70f
3:48pm 11 13 mph 1026.6mb 70f
3:42pm 11 14 mph 1026.6mb 70f
3:36pm 11 14 mph 1026.6mb 70f
3:30pm 11 13 mph 1026.6mb 70f
3:24pm 11 13 mph 1026.7mb 70f
3:18pm 10 11 mph 1026.8mb 70f
3:12pm 11 13 mph 1026.8mb 70f
3:06pm 11 13 mph 1026.8mb 70f
3:00pm 10 13 mph 1026.9mb 70f
2:54pm 10 11 mph 1026.9mb 70f
2:48pm 10 11 mph 1027mb 70f
2:42pm 10 11 mph 1027mb 70f
2:36pm 10 11 mph 1027mb 70f
2:30pm 10 11 mph 1027.1mb 70f
2:24pm 9 10 mph 1027.3mb 70f
2:18pm 9 10 mph 1027.3mb 70f
2:12pm 9 10 mph 1027.4mb 70f
2:06pm 9 10 mph 1027.4mb 70f
2:00pm 9 10 mph 1027.5mb 70f
1:54pm 9 10 mph 1027.5mb 69f
1:48pm 8 10 mph 1027.5mb 70f
1:42pm 9 10 mph 1027.7mb 69f
1:36pm 9 9 mph 1027.7mb 69f
1:30pm 9 10 mph 1027.7mb 69f
1:24pm 8 9 mph 1027.7mb 69f
1:18pm 9 10 mph 1027.8mb 69f
1:12pm 9 9 mph 1027.8mb 70f
1:06pm 9 9 mph 1027.8mb 69f
1:00pm 9 9 mph 1027.9mb 69f
12:54pm 9 10 mph 1028mb 69f
12:48pm 9 10 mph 1028mb 69f
12:42pm 8 9 mph 1028.1mb 69f
12:36pm 8 9 mph 1028.2mb 69f
12:30pm 7 8 mph 1028.3mb 69f
12:24pm 7 8 mph 1028.4mb 69f
12:18pm 7 8 mph 1028.4mb 68f
12:12pm 7 8 mph 1028.4mb 68f
12:06pm 7 8 mph 1028.4mb 68f
12:00pm 7 8 mph 1028.5mb 68f
11:54am 7 8 mph 1028.5mb 68f
11:48am 7 8 mph 1028.6mb 68f
11:42am 7 8 mph 1028.7mb 68f
11:36am 6 7 mph 1028.7mb 68f
11:30am 7 7 mph 1028.8mb 68f
11:24am 6 7 mph 1028.8mb 68f
11:18am 6 6 mph 1028.9mb 67f
11:12am 6 6 mph 1028.9mb 67f
11:06am 6 6 mph 1028.9mb 67f
11:00am 6 7 mph 1028.9mb 67f
10:54am 5 6 mph 1028.9mb 67f
10:48am 5 6 mph 1028.9mb 67f
10:42am 5 5 mph 1028.9mb 67f
10:36am 5 5 mph 1029mb 67f
10:30am 5 6 mph 1028.9mb 67f
10:24am 5 6 mph 1028.9mb 67f
10:18am 5 6 mph 1029mb 67f
10:12am 3 5 mph 1029mb 67f
10:06am 3 5 mph 1029.1mb 66f
10:00am 3 5 mph 1029.1mb 66f
9:54am 3 3 mph 1029.1mb 66f
9:48am 5 5 mph 1029.1mb 66f
9:42am 3 3 mph 1029.2mb 66f
9:36am 3 3 mph 1029.2mb 66f
9:30am 3 3 mph 1029.2mb 66f
9:24am 3 3 mph 1029.2mb 66f
9:18am 2 3 mph 1029.2mb 66f
9:12am 2 3 mph 1029.2mb 66f
9:06am 2 3 mph 1029.2mb 66f
9:00am 3 3 mph 1029.3mb 66f
8:54am 2 3 mph 1029.2mb 66f
8:48am 3 3 mph 1029.1mb 66f
8:42am 2 3 mph 1029.2mb 66f
8:36am 2 3 mph 1029.1mb 65f
8:30am 2 2 mph 1029mb 65f
8:24am 2 2 mph 1028.9mb 65f
8:18am 2 2 mph 1028.9mb 65f
8:12am 3 3 mph 1028.9mb 64f
8:06am 3 3 mph 1028.8mb 65f
8:00am 3 3 mph 1028.7mb 65f
7:54am 3 5 mph 1028.7mb 65f
7:48am 3 5 mph 1028.6mb 64f
7:42am 3 5 mph 1028.5mb 64f
7:36am 5 5 mph 1028.5mb 64f
7:30am 3 5 mph 1028.4mb 64f
7:24am 2 3 mph 1028.4mb 64f
7:18am 3 3 mph 1028.4mb 64f
7:12am 2 2 mph 1028.3mb 64f
7:06am 2 2 mph 1028.2mb 64f
7:00am 2 3 mph 1028.2mb 64f
6:54am 2 2 mph 1028.2mb 64f
6:48am 1 2 mph 1028.1mb 64f
6:42am 2 2 mph 1028.1mb 64f
6:36am  -  1 mph 1028.1mb 64f
6:30am 1 2 mph 1028mb 64f
6:24am 2 2 mph 1028mb 64f
6:18am 1 2 mph 1028mb 64f
6:12am 1 2 mph 1027.9mb 64f
6:06am 1 2 mph 1027.8mb 64f
6:00am 2 2 mph 1027.8mb 64f
5:54am 1 2 mph 1027.8mb 64f
5:48am 1 2 mph 1027.8mb 64f
5:42am 2 2 mph 1027.8mb 64f
5:36am 2 3 mph 1027.8mb 64f
5:30am 2 2 mph 1027.7mb 65f
5:24am 2 2 mph 1027.7mb 64f
5:18am 1 2 mph 1027.7mb 64f
5:12am 1 2 mph 1027.7mb 64f
5:06am  -  1 mph 1027.6mb 64f
5:00am  -  0 mph 1027.4mb 64f
4:54am  -  1 mph 1027.3mb 64f
4:48am 1 1 mph 1027.1mb 64f
4:42am 1 2 mph 1027.1mb 64f
4:36am 2 2 mph 1027.1mb 64f
4:30am 2 2 mph 1027mb 64f
4:24am 1 2 mph 1027mb 64f
4:18am 2 2 mph 1027mb 64f
4:12am 3 5 mph 1026.9mb 64f
4:06am 3 5 mph 1026.9mb 64f
4:00am 3 5 mph 1027mb 64f
3:54am 3 5 mph 1027mb 64f
3:48am 5 5 mph 1026.9mb 64f
3:42am 3 5 mph 1027mb 64f
3:36am 5 5 mph 1027mb 64f
3:30am 5 5 mph 1027mb 64f
3:24am 3 5 mph 1027mb 64f
3:18am 5 5 mph 1027mb 64f
3:12am 5 5 mph 1026.9mb 64f
3:06am 5 6 mph 1027mb 64f
3:00am 5 6 mph 1027mb 64f
2:54am 6 6 mph 1027mb 64f
2:48am 6 6 mph 1027.1mb 64f
2:42am 6 7 mph 1027.1mb -
2:36am 6 7 mph 1027.1mb -
2:30am 6 7 mph 1027.1mb 64f
2:24am 6 7 mph 1027.1mb 64f
2:18am 6 6 mph 1027.2mb 64f
2:12am 6 6 mph 1027.3mb 64f
2:06am 5 6 mph 1027.3mb 64f
2:00am 6 6 mph 1027.3mb 65f
1:54am 6 6 mph 1027.3mb 65f
1:48am 6 6 mph 1027.2mb 65f
1:42am 5 6 mph 1027.2mb 65f
1:36am 5 5 mph 1027.3mb 65f
1:30am 5 6 mph 1027.3mb 65f
1:24am 5 5 mph 1027.3mb 65f
1:18am 5 6 mph 1027.3mb 65f
1:12am 6 6 mph 1027.4mb 65f
1:06am 6 6 mph 1027.3mb 65f
1:00am 5 6 mph 1027.4mb 65f
12:54am 5 6 mph 1027.4mb 65f
12:48am 5 6 mph 1027.4mb 65f
12:42am 5 6 mph 1027.4mb 65f
12:36am 6 6 mph 1027.4mb 65f
12:30am 5 5 mph 1027.5mb 65f
12:24am 3 5 mph 1027.6mb 65f
12:18am 3 5 mph 1027.7mb 65f
12:12am 5 6 mph 1027.7mb 65f
12:06am 3 5 mph 1027.8mb 65f
12:00am 5 6 mph 1027.7mb 65f
Sat 10/21 11:54pm 6 7 mph 1027.7mb 65f
11:48pm 5 6 mph - -
11:42pm 6 7 mph 1027.8mb 65f
11:36pm 6 6 mph 1027.8mb 65f
11:30pm 5 6 mph 1027.9mb 65f
11:24pm 5 5 mph 1027.9mb 65f
11:18pm 5 6 mph 1028mb 65f
11:12pm 6 6 mph 1028mb 65f
11:06pm 5 6 mph 1028.1mb 65f
11:00pm 5 6 mph 1028.1mb 65f
10:54pm 5 5 mph 1028.1mb 65f
10:48pm 5 5 mph 1028.1mb 65f
10:42pm 5 5 mph 1028.1mb 66f
10:36pm 5 6 mph 1028.1mb 66f
10:30pm 5 6 mph 1028.1mb 66f
10:24pm 6 7 mph 1028.1mb 66f
10:18pm 5 6 mph - -
10:12pm 3 5 mph 1028.2mb 66f
10:06pm 5 6 mph 1028.2mb 66f
10:00pm 5 5 mph 1028.1mb 66f
9:54pm 3 3 mph 1028.1mb 66f
9:30pm 5 6 mph 1028mb 66f
9:24pm 6 7 mph 1028mb 66f
9:18pm 6 7 mph 1028mb 67f
9:12pm 6 7 mph 1028mb 67f
9:06pm 6 7 mph 1028mb 67f
9:00pm 6 8 mph 1028mb 67f
8:54pm 6 7 mph 1028mb 67f
8:48pm 6 7 mph 1028mb -
8:42pm 7 7 mph 1028mb 67f
8:36pm 7 8 mph 1027.9mb 67f
8:30pm 7 7 mph 1028mb 67f
8:24pm 7 8 mph 1027.9mb 67f
8:18pm 8 9 mph - -
8:12pm 8 9 mph 1027.8mb 67f
8:06pm 8 9 mph 1027.8mb 67f
8:00pm 8 9 mph 1027.8mb 68f
7:54pm 8 9 mph 1028mb 68f
7:48pm  -  mph 1028mb 68f
7:42pm  -  mph 1027.9mb 68f
7:36pm  -  mph 1027.9mb 68f
7:30pm 8 9 mph 1027.9mb 68f
7:24pm 9 10 mph 1027.9mb 68f
7:18pm 8 9 mph - -
7:12pm 9 10 mph 1027.9mb 68f
7:06pm 8 9 mph 1027.7mb 68f
7:00pm 9 11 mph 1027.7mb 69f
6:54pm 11 13 mph 1027.5mb 69f
6:48pm  -  mph 1027.4mb -
6:42pm  -  mph 1027.4mb 69f
6:36pm  -  mph 1027.4mb 69f
6:30pm 11 13 mph 1027.3mb 69f
6:24pm 10 11 mph 1027.2mb 69f
6:18pm 10 11 mph 1027.2mb 69f
6:12pm 10 11 mph 1027.1mb 69f
6:06pm 10 11 mph 1027.1mb 69f
6:00pm 9 11 mph 1027.1mb 69f
5:54pm 9 10 mph 1027.1mb 69f
5:48pm 9 10 mph 1027.1mb -
5:42pm 9 10 mph 1027.1mb 69f
5:36pm 8 9 mph 1027.1mb 69f
5:30pm 8 9 mph 1027.1mb 69f
5:24pm 9 9 mph 1026.9mb 69f
5:18pm 8 9 mph 1026.9mb 69f
5:12pm 8 9 mph 1026.9mb 69f
5:06pm 8 9 mph 1026.9mb 69f
5:00pm 8 9 mph 1026.9mb 70f
4:54pm 9 10 mph 1026.9mb 69f
4:48pm 9 10 mph 1026.8mb 70f
4:42pm 9 10 mph 1026.8mb 69f
4:36pm 9 10 mph 1026.8mb 69f
4:30pm 8 9 mph 1026.8mb 69f
4:24pm 8 9 mph 1026.8mb 69f
4:18pm 8 9 mph 1026.8mb 69f
4:12pm 7 8 mph 1026.8mb 69f
4:06pm 8 9 mph 1026.7mb 69f
4:00pm 8 8 mph 1026.7mb 69f
3:54pm 8 8 mph 1026.7mb 69f
3:48pm 8 9 mph 1026.7mb 69f
3:42pm 7 9 mph 1026.7mb 69f
3:36pm 8 9 mph 1026.6mb 69f
3:30pm 8 9 mph 1026.6mb 69f
3:24pm 8 9 mph 1026.6mb 69f
3:18pm 8 9 mph 1026.6mb 69f
3:12pm 8 8 mph 1026.6mb 69f
3:06pm 8 9 mph 1026.6mb 69f
3:00pm 8 8 mph 1026.7mb 69f
2:54pm 7 8 mph 1026.6mb 69f
2:48pm 7 7 mph 1026.6mb 69f
2:42pm 7 8 mph 1026.5mb 69f
2:36pm 7 7 mph 1026.6mb 69f
2:30pm 7 8 mph 1026.6mb 69f
2:24pm 7 8 mph 1026.6mb 69f
2:18pm 7 8 mph 1026.7mb 69f
2:12pm 7 8 mph 1026.7mb 69f
2:06pm 7 8 mph 1026.7mb 69f
2:00pm 7 7 mph 1026.8mb 68f
1:54pm 7 8 mph 1026.7mb 69f
1:48pm 6 7 mph 1026.7mb 68f
1:42pm 7 8 mph 1026.8mb 69f
1:36pm 7 7 mph 1026.9mb 69f
1:30pm 8 8 mph 1026.9mb 68f
1:24pm 8 9 mph 1026.9mb 68f
1:18pm 8 8 mph 1027mb 68f
1:12pm 8 9 mph 1027.1mb 68f
1:06pm 8 8 mph 1027.2mb 68f
1:00pm 8 9 mph 1027.2mb 68f
12:54pm 8 8 mph 1027.3mb 68f
12:48pm 8 8 mph 1027.4mb 68f
12:42pm 7 7 mph 1027.5mb 68f
12:36pm 7 8 mph 1027.5mb 68f
12:30pm 7 8 mph 1027.5mb 68f
12:24pm 7 7 mph 1027.5mb 67f
12:18pm 7 7 mph 1027.5mb 68f
12:12pm 6 7 mph 1027.6mb 68f
12:06pm 6 6 mph 1027.6mb 68f
12:00pm 6 6 mph 1027.7mb 67f
11:54am 5 5 mph 1027.7mb 68f
11:48am 3 5 mph 1027.7mb 68f
11:42am 2 3 mph 1027.7mb 68f
11:36am 2 2 mph 1027.8mb 68f
11:30am 2 3 mph 1027.8mb 69f
11:24am  -  1 mph 1027.8mb 70f
11:18am  -  1 mph 1027.8mb 71f
11:12am  -  0 mph 1027.9mb 72f
11:06am  -  0 mph 1027.8mb 74f
11:00am  -  0 mph 1027.8mb 73f
10:54am  -  0 mph 1027.9mb 72f
10:48am  -  0 mph 1027.8mb 73f
10:42am  -  0 mph 1027.8mb 73f
10:36am  -  1 mph 1027.9mb 72f
10:30am  -  0 mph 1027.8mb 70f
10:24am  -  1 mph 1027.8mb 70f
10:18am 2 2 mph 1027.8mb 69f
10:12am 1 2 mph 1027.7mb 69f
10:06am 3 3 mph 1027.7mb 68f
10:00am 5 5 mph 1027.7mb 68f
9:54am 3 5 mph 1027.7mb 67f
9:48am 3 5 mph 1027.6mb 67f
9:42am 3 5 mph 1027.6mb 67f
9:36am 5 6 mph 1027.6mb 67f
9:30am 6 6 mph 1027.6mb 67f
9:24am 5 6 mph 1027.6mb 67f
9:18am 5 5 mph 1027.5mb 67f
9:12am 5 6 mph 1027.5mb 67f
9:06am 6 6 mph 1027.4mb 66f
9:00am 5 6 mph 1027.4mb 66f
8:54am 5 6 mph 1027.3mb 66f
8:48am 5 6 mph 1027.2mb 66f
8:42am 5 6 mph 1027.2mb 66f
8:36am 5 5 mph 1027.1mb 66f
8:30am 5 6 mph 1027mb 66f
8:24am 5 5 mph 1027mb 66f
8:18am 6 6 mph 1026.8mb 65f
8:12am 6 6 mph 1026.8mb 65f
8:06am 6 6 mph 1026.7mb 65f
8:00am 5 6 mph 1026.5mb 65f
7:54am 5 6 mph 1026.5mb 65f
7:48am 5 5 mph 1026.4mb 65f
7:42am 5 5 mph 1026.2mb 65f
7:36am 5 5 mph 1026.1mb 65f
7:30am 3 5 mph 1026mb 65f
7:24am 3 5 mph 1026mb 65f
7:18am 3 3 mph 1025.8mb 65f
7:12am 3 3 mph 1025.7mb 64f
7:06am 3 5 mph 1025.6mb 64f
7:00am 3 5 mph 1025.6mb 64f
6:54am 5 6 mph 1025.5mb 64f
6:48am 6 7 mph 1025.4mb 64f
6:42am 7 7 mph 1025.4mb 65f
6:36am 6 7 mph 1025.4mb 65f
6:30am 7 7 mph 1025.3mb 65f
6:24am 7 7 mph 1025.3mb 65f
6:18am 6 7 mph 1025.3mb 65f
6:12am 6 6 mph 1025.2mb 65f
6:06am 5 6 mph 1025.2mb 65f
6:00am 5 6 mph 1025.1mb 65f
5:54am 5 6 mph 1025.1mb 65f
5:48am 5 6 mph 1025.1mb 65f
5:42am 6 6 mph 1025mb 65f
5:36am 5 5 mph 1025mb 65f
5:30am 5 5 mph 1025mb 65f
5:24am 3 3 mph 1024.8mb 65f
5:18am 3 3 mph 1024.7mb 65f
5:12am 3 5 mph 1024.5mb 65f
5:06am 3 5 mph 1024.5mb 65f
5:00am 5 6 mph 1024.6mb 65f
4:54am 5 5 mph 1024.6mb 65f
4:48am 6 6 mph 1024.5mb 65f
4:42am 5 6 mph 1024.5mb 65f
4:36am 5 6 mph 1024.6mb 65f
4:30am 5 6 mph 1024.6mb 65f
4:24am 5 6 mph 1024.6mb 65f
4:18am 6 7 mph 1024.6mb 65f
4:12am 6 7 mph 1024.6mb 65f
4:06am 6 7 mph 1024.6mb 65f
4:00am 7 8 mph 1024.6mb 65f
3:54am 7 8 mph 1024.6mb 65f
3:48am 8 9 mph 1024.5mb 65f
3:42am 8 9 mph 1024.5mb 64f
3:36am 8 9 mph 1024.5mb 65f
3:30am 8 9 mph 1024.4mb 65f
3:24am 9 9 mph 1024.5mb 65f
3:18am 7 7 mph 1024.4mb 65f
3:12am 7 7 mph 1024.4mb 66f
3:06am 7 8 mph 1024.4mb 66f
3:00am 7 8 mph 1024.5mb 66f
2:54am 7 7 mph 1024.5mb 66f
2:48am 5 6 mph 1024.6mb 66f
2:42am 5 6 mph 1024.6mb 66f
2:36am 5 5 mph 1024.6mb 66f
2:30am 5 5 mph 1024.7mb 66f
2:24am 5 6 mph 1024.8mb 66f
2:18am 5 6 mph 1024.8mb 66f
2:12am 5 5 mph 1024.8mb 67f
2:06am 5 5 mph 1024.8mb 67f
2:00am 5 6 mph 1024.8mb 67f
1:54am 5 5 mph 1024.8mb 67f
1:48am 5 6 mph 1024.7mb 66f
1:42am 6 6 mph 1024.7mb 66f
1:36am 5 6 mph 1024.6mb 67f
1:30am 5 6 mph 1024.6mb 66f
1:24am 5 6 mph 1024.6mb 66f
1:18am 5 5 mph 1024.6mb 66f
1:12am 3 3 mph 1024.5mb 66f
1:06am 3 5 mph 1024.6mb 66f
1:00am 3 3 mph 1024.5mb 66f
12:54am 3 5 mph 1024.5mb 66f
12:48am 3 3 mph 1024.5mb 66f
12:42am 3 5 mph 1024.6mb 66f
12:36am 5 5 mph 1024.5mb 66f
12:30am 5 6 mph 1024.4mb 66f
12:24am 5 5 mph 1024.4mb 66f
12:18am 5 6 mph 1024.4mb 66f
12:12am 5 5 mph 1024.5mb 66f
12:06am 3 3 mph 1024.5mb 66f
12:00am 2 3 mph 1024.4mb 66f
Fri 10/20 11:54pm 3 3 mph 1024.4mb 66f
11:48pm 3 5 mph 1024.4mb 67f
11:42pm 3 3 mph 1024.4mb 67f
11:36pm 3 5 mph 1024.4mb 67f
11:30pm 5 6 mph 1024.3mb 67f
11:24pm 6 6 mph 1024.3mb 66f
11:18pm 6 6 mph 1024.2mb 66f
11:12pm 6 6 mph 1024.2mb 66f
11:06pm 6 6 mph 1024.2mb 66f
11:00pm 6 6 mph 1024.2mb 66f
10:54pm 5 6 mph 1024.1mb 66f
10:48pm  -  mph 1024.1mb -
10:42pm  -  mph 1024mb 66f
10:36pm  -  mph 1024.1mb 66f
10:30pm 6 6 mph 1024mb 66f
10:24pm 6 6 mph 1023.9mb 66f
10:18pm 6 7 mph 1023.9mb 66f
10:12pm 5 7 mph 1023.9mb 66f
10:06pm 3 5 mph 1023.9mb 69f
10:00pm 3 3 mph 1023.8mb 69f
9:54pm 3 3 mph 1023.8mb 69f
9:48pm  -  mph 1023.7mb -
9:42pm  -  mph 1023.7mb 68f
9:36pm  -  mph 1023.6mb 69f
9:30pm 6 6 mph 1023.5mb 69f
9:24pm 6 6 mph 1023.5mb 69f
9:18pm 6 6 mph - -
9:12pm 6 7 mph 1023.3mb 69f
9:06pm 7 7 mph 1023.2mb 69f
9:00pm 6 6 mph 1023.2mb 69f
8:54pm 6 6 mph 1023.2mb 68f
8:48pm 6 6 mph 1023.2mb 68f
8:42pm 6 7 mph 1023.2mb 68f
8:36pm 6 7 mph 1023.2mb 68f
8:30pm 6 6 mph 1023.1mb 68f
8:24pm 6 7 mph 1023.1mb 68f
8:18pm 7 7 mph - -
8:12pm 7 7 mph 1023mb 68f
8:06pm 6 7 mph 1023mb 68f
8:00pm 7 7 mph 1022.9mb 68f
7:54pm 6 6 mph 1023mb 68f
7:48pm 5 5 mph 1022.9mb -
7:42pm 5 6 mph 1022.9mb 68f
7:36pm 5 6 mph 1022.8mb 68f
7:30pm 6 6 mph 1022.7mb 68f
7:24pm 6 6 mph 1022.6mb 68f
7:18pm 6 6 mph 1022.6mb 68f
7:12pm 5 6 mph 1022.5mb 68f
7:06pm 5 6 mph 1022.5mb 68f
7:00pm 5 6 mph 1022.5mb 68f
6:54pm 6 6 mph 1022.5mb 68f
6:48pm  -  mph 1022.5mb -
6:42pm  -  mph 1022.4mb -
6:36pm  -  mph 1022.5mb -
6:30pm 6 6 mph 1022.4mb 68f
6:24pm 6 6 mph 1022.3mb 69f
6:18pm 6 6 mph 1022.3mb -
6:12pm 6 6 mph 1022.3mb 69f
6:06pm 5 5 mph 1022.2mb 69f
6:00pm 3 3 mph 1022.2mb 69f
5:54pm 3 3 mph 1022.1mb 69f
5:48pm 3 5 mph 1022.1mb 69f
5:42pm 5 5 mph 1022.1mb 69f
5:36pm 5 5 mph 1022.1mb 69f
5:30pm 3 3 mph 1022.1mb 69f
5:24pm 3 3 mph 1022.1mb 69f
5:18pm 3 5 mph 1022.1mb 69f
5:12pm 3 5 mph 1022.1mb 69f
5:06pm 3 5 mph 1022.1mb 69f
5:00pm 3 5 mph 1022.1mb 69f
4:54pm 3 5 mph 1022.1mb 69f
4:48pm 5 5 mph 1022.1mb 69f
4:42pm 5 5 mph 1022.1mb 69f
4:36pm 5 6 mph 1022.1mb 69f
4:30pm 5 6 mph 1022.1mb 69f
4:24pm 6 7 mph 1022mb 70f
4:18pm 6 7 mph 1022.1mb 69f
4:12pm 6 7 mph 1022.2mb 69f
4:06pm 7 7 mph 1022.2mb 70f
4:00pm 7 7 mph 1022.2mb 70f
3:54pm 8 8 mph 1022.3mb 69f
3:48pm 8 9 mph 1022.3mb 69f
3:42pm 8 9 mph 1022.3mb 69f
3:36pm 9 9 mph 1022.3mb 69f
3:30pm 8 9 mph 1022.3mb 69f
3:24pm 10 11 mph 1022.3mb 69f
3:18pm 10 11 mph 1022.4mb 69f
3:12pm 10 11 mph 1022.4mb 69f
3:06pm 9 11 mph 1022.5mb 69f
3:00pm 9 11 mph 1022.5mb 69f
2:54pm 10 11 mph 1022.4mb 69f
2:48pm 10 11 mph 1022.5mb 69f
2:42pm 10 11 mph 1022.5mb 69f
2:36pm 11 13 mph 1022.6mb 69f
2:30pm 11 13 mph 1022.6mb 69f
2:24pm 11 13 mph 1022.7mb 69f
2:18pm 10 11 mph 1022.7mb 69f
2:12pm 9 10 mph 1022.7mb 69f
2:06pm 9 10 mph 1022.7mb 69f
2:00pm 9 10 mph 1022.8mb 69f
1:54pm 9 9 mph 1022.9mb 69f
1:48pm 9 11 mph 1023mb 69f
1:42pm 9 10 mph 1023mb 70f
1:36pm 10 10 mph 1023mb 69f
1:30pm 10 13 mph 1023.1mb 69f
1:24pm 11 14 mph 1023.1mb 69f
1:18pm 11 13 mph 1023.2mb 69f
1:12pm 11 13 mph 1023.3mb 69f
1:06pm 10 13 mph 1023.3mb 69f
1:00pm 10 13 mph 1023.4mb 69f
12:54pm 11 13 mph 1023.5mb 69f
12:48pm 10 11 mph 1023.6mb 69f
12:00pm 9 10 mph 1024mb 69f
11:54am 9 11 mph 1024mb 68f
11:48am 9 11 mph 1024.1mb 69f
10:54am 6 8 mph 1024.1mb 69f
10:48am 3 7 mph 1024.2mb 68f
10:12am  -  1 mph 1024.2mb 69f
10:06am  -  0 mph 1024.2mb 70f
10:00am  -  0 mph 1024.2mb 67f
9:54am  -  1 mph 1024.2mb 67f
9:48am  -  1 mph 1024.2mb 66f
9:42am 1 2 mph 1024.2mb 66f
9:36am 1 2 mph 1024.2mb 66f
9:30am 2 2 mph 1024.1mb 65f
9:24am 2 3 mph 1024.1mb 64f
9:18am 3 3 mph 1024.1mb 64f
9:12am 3 5 mph 1024mb 63f
9:06am 3 5 mph 1024mb 63f
9:00am 3 5 mph 1023.9mb 62f
8:54am 3 5 mph 1023.8mb 62f
8:48am 5 6 mph 1023.7mb 62f
8:42am 6 6 mph 1023.7mb 62f
8:36am 6 6 mph 1023.7mb 62f
8:30am 6 6 mph 1023.6mb 62f
8:24am 6 6 mph 1023.6mb 62f
8:18am 6 7 mph 1023.4mb 62f
8:12am 7 8 mph 1023.3mb 61f
8:06am 7 8 mph 1023.3mb 61f
8:00am 7 8 mph 1023.2mb 61f
7:54am 7 8 mph 1023.1mb 61f
7:48am 7 8 mph 1023.1mb 61f
7:42am 8 9 mph 1023.1mb 61f
7:36am 7 9 mph 1023.1mb 61f
7:30am 7 8 mph 1023mb 62f
7:24am 8 9 mph 1023mb 62f
7:18am 7 9 mph 1022.9mb 62f
7:12am 8 9 mph 1022.9mb 62f
7:06am 8 10 mph 1022.8mb 62f
7:00am 8 9 mph 1022.8mb 62f
6:54am 7 8 mph 1022.7mb 62f
6:48am 6 7 mph 1022.7mb 62f
6:42am 7 8 mph 1022.7mb 62f
6:36am 6 7 mph 1022.7mb 62f
6:30am 7 7 mph 1022.6mb 63f
6:24am 7 8 mph 1022.5mb 63f
6:18am 6 7 mph 1022.5mb 63f
6:12am 6 7 mph 1022.4mb 63f
6:06am 6 7 mph 1022.2mb 63f
6:00am 7 8 mph 1022.2mb 63f
5:54am 7 7 mph 1022.2mb 63f
5:48am 6 8 mph 1022.1mb 63f
5:42am 7 8 mph 1021.9mb 63f
5:36am 8 9 mph 1021.9mb 63f
5:30am 10 10 mph 1021.9mb 63f
5:24am 10 11 mph 1021.8mb 63f
5:18am 10 11 mph 1021.8mb 63f
5:12am 8 10 mph 1021.7mb 63f
5:06am 8 10 mph 1021.7mb 63f
5:00am 8 10 mph 1021.8mb 63f